Volcan De Teneguia — ECLA — position and weather

sailwx.info

Track history (hours):
 
Tides and Currents Weather Stations Pressure Air Temp Water Temp Dewpoint Dewpoint Depression Visibility Wind Speed Wind Dir Waves Ship Positions

Volcan De Teneguia

Last reported at 2017-Feb-24 19:30 UTC. Time now 2017-Feb-24 21:38 UTC.
Position N 28°29' W 016°14'.

Length 145 m; draft 5 m.

Type: Cargo ship. MMSI: 225317000.

Date/timePositionNaut miles runAvg speedWind from/ knotsBaromVisibWave heightAir tempDewpointWater temp
2017-Feb-24 19:30N 28°29' W 016°14'4 4.0
2017-Feb-24 18:25N 28°27' W 016°10'3 3.6
2017-Feb-24 17:33N 28°24' W 016°11'1010.5
2017-Feb-24 16:33N 28°23' W 015°59'1514.8
2017-Feb-24 15:33N 28°18' W 015°43'1514.6
2017-Feb-24 14:33N 28°13' W 015°27'5 4.9
2017-Feb-24 13:33N 28°09' W 015°25'0 0.0
2017-Feb-24 12:33N 28°09' W 015°25'0 0.0
2017-Feb-24 11:33N 28°09' W 015°25'0 0.0
2017-Feb-24 10:33N 28°09' W 015°25'0 0.0
2017-Feb-24 09:24N 28°09' W 015°25'0 0.0
2017-Feb-24 08:27N 28°09' W 015°25'0 0.0
2017-Feb-24 07:33N 28°09' W 015°25'2 2.0
2017-Feb-24 06:33N 28°07' W 015°24'8 8.2
2017-Feb-24 05:33N 28°14' W 015°28'1313.0
2017-Feb-24 04:33N 28°21' W 015°40'10 9.9
2017-Feb-24 03:33N 28°31' W 015°40'1010.0
2017-Feb-24 02:33N 28°37' W 015°49'1212.0
2017-Feb-24 01:33N 28°31' W 016°01'1111.4
2017-Feb-24 00:33N 28°28' W 016°13'1 1.5
2017-Feb-23 23:33N 28°29' W 016°14'0 0.0
2017-Feb-23 22:15N 28°29' W 016°14'0 0.0
2017-Feb-23 21:32N 28°29' W 016°14'0 0.0
2017-Feb-23 19:33N 28°29' W 016°14'6 6.1
2017-Feb-23 18:33N 28°30' W 016°07'1715.3
2017-Feb-23 17:26N 28°42' W 015°53'1314.9
2017-Feb-23 16:33N 28°51' W 015°42'1514.7
2017-Feb-23 15:33N 29°01' W 015°29'  
2017-Feb-18 10:32N 29°33' W 014°54'1313.4
2017-Feb-18 09:33N 29°24' W 015°05'1413.5
2017-Feb-18 08:33N 29°14' W 015°16'1313.2
2017-Feb-18 07:33N 29°04' W 015°26'1313.1
2017-Feb-18 06:33N 28°55' W 015°37'1313.5
2017-Feb-18 05:33N 28°46' W 015°48'1413.8
2017-Feb-18 04:33N 28°36' W 015°59'1413.5
2017-Feb-18 03:33N 28°28' W 016°12'2 1.5
2017-Feb-18 02:26N 28°29' W 016°14'0 0.0
2017-Feb-18 01:33N 28°29' W 016°14'0 0.0
2017-Feb-18 00:29N 28°29' W 016°14'0 0.0
2017-Feb-17 23:31N 28°29' W 016°14'0 0.0
2017-Feb-17 22:33N 28°29' W 016°14'0 0.0
2017-Feb-17 21:34N 28°29' W 016°14'1 1.4
2017-Feb-17 20:33N 28°28' W 016°13'1111.4
2017-Feb-17 19:33N 28°24' W 016°01'1514.7
2017-Feb-17 18:33N 28°19' W 015°45'1514.8
2017-Feb-17 17:33N 28°14' W 015°30'7 6.8
2017-Feb-17 16:33N 28°08' W 015°25'0 0.4
2017-Feb-17 15:34N 28°09' W 015°25'0 0.0
2017-Feb-17 14:33N 28°09' W 015°25'0 0.0
2017-Feb-17 13:33N 28°09' W 015°25'0 0.0
2017-Feb-17 12:34N 28°09' W 015°25'0 0.0
2017-Feb-17 11:34N 28°09' W 015°25'0 0.0
2017-Feb-17 10:33N 28°09' W 015°25'0 0.0
2017-Feb-17 09:34N 28°09' W 015°25'1 1.1
2017-Feb-17 08:33N 28°08' W 015°25'3 2.8
2017-Feb-17 07:33N 28°09' W 015°22'1111.1
2017-Feb-17 06:33N 28°15' W 015°32'1514.9
2017-Feb-17 05:34N 28°19' W 015°48'1615.2
2017-Feb-17 04:30N 28°26' W 016°05'8 8.7
2017-Feb-17 03:33N 28°29' W 016°14'0 0.0
2017-Feb-17 02:20N 28°29' W 016°14'0 0.0
2017-Feb-17 01:29N 28°29' W 016°14'0 0.0
2017-Feb-17 00:32N 28°29' W 016°14'0 0.0
2017-Feb-16 22:24N 28°29' W 016°14'4 5.2
2017-Feb-16 21:33N 28°29' W 016°09'1514.9
2017-Feb-16 20:31N 28°40' W 015°56'1514.9
2017-Feb-16 19:33N 28°50' W 015°44'1514.7
2017-Feb-16 18:34N 29°00' W 015°33'2114.7
2017-Feb-16 17:10N 29°15' W 015°16'2714.4
2017-Feb-16 15:16N 29°34' W 014°54'1114.8
2017-Feb-16 14:32N 29°42' W 014°45'1414.7
2017-Feb-16 13:33N 29°52' W 014°33'1514.4
2017-Feb-16 12:30N 30°02' W 014°21'1614.6
2017-Feb-16 11:23N 30°14' W 014°07'3114.3
2017-Feb-16 09:12N 30°35' W 013°41'2814.0
2017-Feb-16 07:12N 30°55' W 013°18'3714.2
2017-Feb-16 04:34N 31°21' W 012°46'  
Track history (hours):
 
Tides and Currents Weather Stations Pressure Air Temp Water Temp Dewpoint Dewpoint Depression Visibility Wind Speed Wind Dir Waves Ship Positions

Volcan De Teneguia

Last reported at 2017-Feb-24 19:30 UTC. Time now 2017-Feb-24 21:38 UTC.
Position N 28°29' W 016°14'.

Length 145 m; draft 5 m.

Type: Cargo ship. MMSI: 225317000.

Date/timePositionNaut miles runAvg speedWind from/ knotsBaromVisibWave heightAir tempDewpointWater temp
2017-Feb-24 19:30N 28°29' W 016°14'4 4.0
2017-Feb-24 18:25N 28°27' W 016°10'3 3.6
2017-Feb-24 17:33N 28°24' W 016°11'1010.5
2017-Feb-24 16:33N 28°23' W 015°59'1514.8
2017-Feb-24 15:33N 28°18' W 015°43'1514.6
2017-Feb-24 14:33N 28°13' W 015°27'5 4.9
2017-Feb-24 13:33N 28°09' W 015°25'0 0.0
2017-Feb-24 12:33N 28°09' W 015°25'0 0.0
2017-Feb-24 11:33N 28°09' W 015°25'0 0.0
2017-Feb-24 10:33N 28°09' W 015°25'0 0.0
2017-Feb-24 09:24N 28°09' W 015°25'0 0.0
2017-Feb-24 08:27N 28°09' W 015°25'0 0.0
2017-Feb-24 07:33N 28°09' W 015°25'2 2.0
2017-Feb-24 06:33N 28°07' W 015°24'8 8.2
2017-Feb-24 05:33N 28°14' W 015°28'1313.0
2017-Feb-24 04:33N 28°21' W 015°40'10 9.9
2017-Feb-24 03:33N 28°31' W 015°40'1010.0
2017-Feb-24 02:33N 28°37' W 015°49'1212.0
2017-Feb-24 01:33N 28°31' W 016°01'1111.4
2017-Feb-24 00:33N 28°28' W 016°13'1 1.5
2017-Feb-23 23:33N 28°29' W 016°14'0 0.0
2017-Feb-23 22:15N 28°29' W 016°14'0 0.0
2017-Feb-23 21:32N 28°29' W 016°14'0 0.0
2017-Feb-23 19:33N 28°29' W 016°14'6 6.1
2017-Feb-23 18:33N 28°30' W 016°07'1715.3
2017-Feb-23 17:26N 28°42' W 015°53'1314.9
2017-Feb-23 16:33N 28°51' W 015°42'1514.7
2017-Feb-23 15:33N 29°01' W 015°29'  
2017-Feb-18 10:32N 29°33' W 014°54'1313.4
2017-Feb-18 09:33N 29°24' W 015°05'1413.5
2017-Feb-18 08:33N 29°14' W 015°16'1313.2
2017-Feb-18 07:33N 29°04' W 015°26'1313.1
2017-Feb-18 06:33N 28°55' W 015°37'1313.5
2017-Feb-18 05:33N 28°46' W 015°48'1413.8
2017-Feb-18 04:33N 28°36' W 015°59'1413.5
2017-Feb-18 03:33N 28°28' W 016°12'2 1.5
2017-Feb-18 02:26N 28°29' W 016°14'0 0.0
2017-Feb-18 01:33N 28°29' W 016°14'0 0.0
2017-Feb-18 00:29N 28°29' W 016°14'0 0.0
2017-Feb-17 23:31N 28°29' W 016°14'0 0.0
2017-Feb-17 22:33N 28°29' W 016°14'0 0.0
2017-Feb-17 21:34N 28°29' W 016°14'1 1.4
2017-Feb-17 20:33N 28°28' W 016°13'1111.4
2017-Feb-17 19:33N 28°24' W 016°01'1514.7
2017-Feb-17 18:33N 28°19' W 015°45'1514.8
2017-Feb-17 17:33N 28°14' W 015°30'7 6.8
2017-Feb-17 16:33N 28°08' W 015°25'0 0.4
2017-Feb-17 15:34N 28°09' W 015°25'0 0.0
2017-Feb-17 14:33N 28°09' W 015°25'0 0.0
2017-Feb-17 13:33N 28°09' W 015°25'0 0.0
2017-Feb-17 12:34N 28°09' W 015°25'0 0.0
2017-Feb-17 11:34N 28°09' W 015°25'0 0.0
2017-Feb-17 10:33N 28°09' W 015°25'0 0.0
2017-Feb-17 09:34N 28°09' W 015°25'1 1.1
2017-Feb-17 08:33N 28°08' W 015°25'3 2.8
2017-Feb-17 07:33N 28°09' W 015°22'1111.1
2017-Feb-17 06:33N 28°15' W 015°32'1514.9
2017-Feb-17 05:34N 28°19' W 015°48'1615.2
2017-Feb-17 04:30N 28°26' W 016°05'8 8.7
2017-Feb-17 03:33N 28°29' W 016°14'0 0.0
2017-Feb-17 02:20N 28°29' W 016°14'0 0.0
2017-Feb-17 01:29N 28°29' W 016°14'0 0.0
2017-Feb-17 00:32N 28°29' W 016°14'0 0.0
2017-Feb-16 22:24N 28°29' W 016°14'4 5.2
2017-Feb-16 21:33N 28°29' W 016°09'1514.9
2017-Feb-16 20:31N 28°40' W 015°56'1514.9
2017-Feb-16 19:33N 28°50' W 015°44'1514.7
2017-Feb-16 18:34N 29°00' W 015°33'2114.7
2017-Feb-16 17:10N 29°15' W 015°16'2714.4
2017-Feb-16 15:16N 29°34' W 014°54'1114.8
2017-Feb-16 14:32N 29°42' W 014°45'1414.7
2017-Feb-16 13:33N 29°52' W 014°33'1514.4
2017-Feb-16 12:30N 30°02' W 014°21'1614.6
2017-Feb-16 11:23N 30°14' W 014°07'3114.3
2017-Feb-16 09:12N 30°35' W 013°41'2814.0
2017-Feb-16 07:12N 30°55' W 013°18'3714.2
2017-Feb-16 04:34N 31°21' W 012°46'  

Dump ship's entire track history